Terminal Aerodrome Forecast
Issued by NWS

Home | Current Version | Previous Version | Text Only | Print | Product List | Glossary On
Versions: 1 2 3 4 5 6 7 8 9 10 11 12 13 14 15 16 17
000
FTUS43 KMKX 201430 AAA
TAFUES
TAF AMD
KUES 201430Z 2015/2112 13006KT 3SM BR SCT120
     FM201530 13007KT P6SM SCT130 BKN250
     FM202000 15012KT P6SM BKN070
     FM210000 15011KT P6SM VCSH OVC025
     FM210300 17010KT 4SM SHRA BR OVC025 WS020/18040KT
     FM210600 20008KT 4SM -SHRA BR OVC015
     FM210900 24006KT 4SM BR OVC020=

USA.gov is the U.S. government's official web portal to all federal, state and local government web resources and services.